createdAt,value
2022-09-18T06:18:01.729Z,11.20
2022-09-18T06:21:14.811Z,11.18
2022-09-18T06:24:25.511Z,11.14
2022-09-18T06:27:50.421Z,11.14
2022-09-18T06:31:01.164Z,11.24
2022-09-18T06:34:12.236Z,11.31
2022-09-18T06:37:23.774Z,11.38
2022-09-18T06:40:50.920Z,11.41
2022-09-18T06:44:06.543Z,11.50
2022-09-18T06:47:21.683Z,11.58
2022-09-18T06:50:33.289Z,11.51
2022-09-18T06:53:43.580Z,11.57
2022-09-18T06:56:54.526Z,11.69
2022-09-18T07:00:07.739Z,11.81
2022-09-18T07:03:20.918Z,11.95
2022-09-18T07:06:51.637Z,12.06
2022-09-18T07:10:02.851Z,12.13
2022-09-18T07:13:22.110Z,12.26
2022-09-18T07:16:32.769Z,12.33
2022-09-18T07:19:42.707Z,12.28
2022-09-18T07:22:55.183Z,12.35
2022-09-18T07:26:11.382Z,12.47
2022-09-18T07:29:21.642Z,12.59
2022-09-18T07:32:31.369Z,12.78
2022-09-18T07:35:41.432Z,12.94
2022-09-18T07:38:53.401Z,12.92
2022-09-18T07:42:08.958Z,12.98
2022-09-18T07:45:19.221Z,13.00
2022-09-18T07:48:29.251Z,13.02
2022-09-18T07:51:46.379Z,13.07
2022-09-18T07:54:59.426Z,13.17
2022-09-18T07:58:14.568Z,13.20
2022-09-18T08:01:36.229Z,13.18
2022-09-18T08:04:48.111Z,13.24
2022-09-18T08:08:05.720Z,13.29
2022-09-18T08:11:36.433Z,13.35
2022-09-18T08:15:03.249Z,13.38
2022-09-18T08:18:25.295Z,13.44
2022-09-18T08:21:43.463Z,13.54
2022-09-18T08:24:55.695Z,13.74
2022-09-18T08:28:07.899Z,13.73
2022-09-18T08:31:26.430Z,13.76
2022-09-18T08:34:38.951Z,13.73
2022-09-18T08:37:49.796Z,13.79
2022-09-18T08:41:25.519Z,13.85
2022-09-18T08:44:50.275Z,13.81
2022-09-18T08:48:07.747Z,13.91
2022-09-18T08:51:30.663Z,14.08
2022-09-18T08:54:47.774Z,14.25
2022-09-18T08:58:15.701Z,14.40
2022-09-18T09:01:41.540Z,14.41
2022-09-18T09:04:53.513Z,14.40
2022-09-18T09:08:15.754Z,14.59
2022-09-18T09:11:39.587Z,15.04
2022-09-18T09:15:10.888Z,15.17
2022-09-18T09:18:31.044Z,15.23
2022-09-18T09:21:52.239Z,15.26
2022-09-18T09:25:14.593Z,15.42
2022-09-18T09:28:42.039Z,15.29
2022-09-18T09:32:02.075Z,15.30
2022-09-18T09:35:30.217Z,15.16
2022-09-18T09:38:53.883Z,14.94
2022-09-18T09:42:11.508Z,15.19
2022-09-18T09:45:29.130Z,15.57
2022-09-18T09:48:47.830Z,15.44
2022-09-18T09:52:09.377Z,15.50
2022-09-18T09:55:26.259Z,15.26
2022-09-18T09:58:48.374Z,15.08
2022-09-18T10:02:20.512Z,15.07
2022-09-18T10:05:39.482Z,15.27
2022-09-18T10:08:59.696Z,15.41
2022-09-18T10:12:18.851Z,16.01
2022-09-18T10:15:36.969Z,16.63
2022-09-18T10:18:50.618Z,17.10
2022-09-18T10:22:04.921Z,17.24
2022-09-18T10:25:27.627Z,17.06
2022-09-18T10:28:37.981Z,16.95
2022-09-18T10:31:49.487Z,17.11
2022-09-18T10:35:00.647Z,16.95
2022-09-18T10:38:27.975Z,16.90
2022-09-18T10:41:40.445Z,16.83
2022-09-18T10:44:59.213Z,16.69
2022-09-18T10:48:17.080Z,16.40
2022-09-18T10:51:29.811Z,16.24
2022-09-18T10:54:40.743Z,16.23
2022-09-18T10:58:08.226Z,16.47
2022-09-18T11:01:18.723Z,16.48
2022-09-18T11:04:34.329Z,16.40
2022-09-18T11:07:49.026Z,16.53
2022-09-18T11:11:04.287Z,16.43
2022-09-18T11:14:23.067Z,16.25
2022-09-18T11:17:49.218Z,16.19
2022-09-18T11:21:03.420Z,15.96
2022-09-18T11:24:20.574Z,15.78
2022-09-18T11:27:46.299Z,15.97
2022-09-18T11:31:00.980Z,16.01
2022-09-18T11:34:25.683Z,16.15
2022-09-18T11:37:37.835Z,16.40
2022-09-18T11:40:52.505Z,16.30
2022-09-18T11:44:16.461Z,15.86
2022-09-18T11:47:37.429Z,15.48
2022-09-18T11:50:47.649Z,15.42
2022-09-18T11:54:07.036Z,15.42
2022-09-18T11:57:20.710Z,15.36
2022-09-18T12:00:37.503Z,15.18
2022-09-18T12:03:58.822Z,15.07
2022-09-18T12:10:52.680Z,14.74
2022-09-18T12:14:12.572Z,14.67
2022-09-18T12:17:32.136Z,14.82
2022-09-18T12:20:49.473Z,15.08
2022-09-18T12:23:59.575Z,15.35
2022-09-18T12:27:25.984Z,15.45
2022-09-18T12:30:44.159Z,15.64
2022-09-18T12:34:01.304Z,15.69
2022-09-18T12:37:24.035Z,15.45
2022-09-18T12:40:42.738Z,15.45
2022-09-18T12:44:16.434Z,15.54
2022-09-18T12:47:40.970Z,15.66
2022-09-18T12:51:08.056Z,15.87
2022-09-18T12:54:37.856Z,16.03
2022-09-18T12:57:58.204Z,16.04
2022-09-18T13:01:17.489Z,16.01
2022-09-18T13:04:31.933Z,15.76
2022-09-18T13:07:45.981Z,15.54
2022-09-18T13:11:01.957Z,15.35
2022-09-18T13:14:18.849Z,15.24
2022-09-18T13:17:37.687Z,15.24
2022-09-18T13:20:47.675Z,15.31
2022-09-18T13:24:03.585Z,15.41
2022-09-18T13:27:17.690Z,15.51
2022-09-18T13:30:29.397Z,15.77
2022-09-18T13:33:39.231Z,15.90
2022-09-18T13:36:50.291Z,15.80
2022-09-18T13:40:22.599Z,15.91
2022-09-18T13:43:44.710Z,15.74
2022-09-18T13:46:59.389Z,15.71
2022-09-18T13:50:18.747Z,15.65
2022-09-18T13:53:50.842Z,15.45
2022-09-18T13:57:26.088Z,15.31
2022-09-18T14:00:42.525Z,15.21
2022-09-18T14:03:54.967Z,14.98
2022-09-18T14:07:40.699Z,14.99
2022-09-18T14:11:15.058Z,14.98
2022-09-18T14:14:26.533Z,15.06
2022-09-18T14:17:38.893Z,15.16
2022-09-18T14:24:36.500Z,15.18
2022-09-18T14:27:53.560Z,15.18
2022-09-18T14:31:13.965Z,15.16
2022-09-18T14:34:33.715Z,15.07
2022-09-18T14:37:48.453Z,14.98
2022-09-18T14:41:08.177Z,14.91
2022-09-18T14:44:20.577Z,14.87
2022-09-18T14:47:36.536Z,14.69
2022-09-18T14:50:59.662Z,14.67
2022-09-18T14:54:21.392Z,14.61
2022-09-18T14:57:45.289Z,14.50
2022-09-18T15:00:59.134Z,14.43
2022-09-18T15:04:18.177Z,14.43
2022-09-18T15:07:29.084Z,14.48
2022-09-18T15:10:55.518Z,14.51
2022-09-18T15:14:21.541Z,14.41
2022-09-18T15:17:36.128Z,14.40
2022-09-18T15:20:59.186Z,14.39
2022-09-18T15:24:18.435Z,14.40
2022-09-18T15:27:29.880Z,14.34
2022-09-18T15:30:41.140Z,14.31
2022-09-18T15:33:59.436Z,14.13
2022-09-18T15:37:17.555Z,14.07
2022-09-18T15:40:30.838Z,14.08
2022-09-18T15:43:46.853Z,14.05
2022-09-18T15:46:57.215Z,13.95
2022-09-18T15:50:33.940Z,13.79
2022-09-18T15:54:04.491Z,13.68
2022-09-18T15:57:16.850Z,13.71
2022-09-18T16:00:28.591Z,13.65
2022-09-18T16:03:39.461Z,13.75
2022-09-18T16:06:54.885Z,13.70
2022-09-18T16:10:06.594Z,13.70
2022-09-18T16:13:35.067Z,13.63
2022-09-18T16:16:47.373Z,13.64
2022-09-18T16:19:57.462Z,13.59
2022-09-18T16:23:16.361Z,13.56
2022-09-18T16:26:30.772Z,13.50
2022-09-18T16:29:44.252Z,13.52
2022-09-18T16:33:02.092Z,13.53
2022-09-18T16:36:19.896Z,13.51
2022-09-18T16:39:37.052Z,13.56
2022-09-18T16:42:48.038Z,13.51
2022-09-18T16:45:59.549Z,13.58
2022-09-18T16:49:11.000Z,13.54
2022-09-18T16:52:20.799Z,13.47
2022-09-18T16:55:32.492Z,13.46
2022-09-18T16:58:42.949Z,13.37
2022-09-18T17:02:04.291Z,13.26
2022-09-18T17:05:22.391Z,13.26
2022-09-18T17:08:32.168Z,13.23
2022-09-18T17:11:42.242Z,13.25
2022-09-18T17:14:55.722Z,13.25
2022-09-18T17:18:07.096Z,13.16
2022-09-18T17:21:17.021Z,13.10
2022-09-18T17:24:29.299Z,12.93
2022-09-18T17:27:43.552Z,12.93
2022-09-18T17:30:58.271Z,12.91
2022-09-18T17:34:18.872Z,12.92
2022-09-18T17:37:32.829Z,12.98
2022-09-18T17:40:45.686Z,13.03
2022-09-18T17:43:55.244Z,12.93
2022-09-18T17:47:08.099Z,12.91
2022-09-18T17:50:20.526Z,12.84
2022-09-18T17:53:32.018Z,12.80
2022-09-18T18:00:17.924Z,12.73
2022-09-18T18:03:29.194Z,12.67
2022-09-18T18:06:52.570Z,12.66
2022-09-18T18:10:04.035Z,12.65
2022-09-18T18:13:27.414Z,12.56
2022-09-18T18:16:45.386Z,12.40
2022-09-18T18:19:57.227Z,12.46
2022-09-18T18:23:20.138Z,12.40
2022-09-18T18:26:34.033Z,12.34
2022-09-18T18:29:46.510Z,12.40
2022-09-18T18:32:57.839Z,12.43
2022-09-18T18:36:15.431Z,12.42
2022-09-18T18:39:26.673Z,12.29
2022-09-18T18:42:36.631Z,12.30
2022-09-18T18:45:52.714Z,12.33
2022-09-18T18:49:09.616Z,12.36
2022-09-18T18:52:20.573Z,12.31
2022-09-18T18:55:39.606Z,12.29
2022-09-18T18:58:57.155Z,12.29
2022-09-18T19:02:07.138Z,12.27
2022-09-18T19:05:22.752Z,12.32
2022-09-18T19:08:35.525Z,12.33
2022-09-18T19:11:48.178Z,12.41
2022-09-18T19:14:57.681Z,12.38
2022-09-18T19:18:13.840Z,12.42
2022-09-18T19:21:24.839Z,12.39
2022-09-18T19:24:37.685Z,12.41
2022-09-18T19:27:50.387Z,12.50
2022-09-18T19:31:04.351Z,12.55
2022-09-18T19:34:20.592Z,12.55
2022-09-18T19:37:31.272Z,12.58
2022-09-18T19:40:42.261Z,12.59
2022-09-18T19:43:57.751Z,12.53
2022-09-18T19:47:17.170Z,12.51
2022-09-18T19:50:31.941Z,12.51
2022-09-18T19:53:47.211Z,12.32
2022-09-18T19:56:59.242Z,12.23
2022-09-18T20:00:15.341Z,12.23
